createdAt,value
2022-11-18T00:01:11.946Z,69.58
2022-11-18T00:03:46.146Z,69.59
2022-11-18T00:06:21.035Z,69.68
2022-11-18T00:08:54.472Z,69.64
2022-11-18T00:11:46.296Z,69.76
2022-11-18T00:14:22.446Z,69.63
2022-11-18T00:16:57.553Z,69.78
2022-11-18T00:19:32.522Z,69.81
2022-11-18T00:22:05.853Z,69.72
2022-11-18T00:24:39.256Z,69.84
2022-11-18T00:27:11.994Z,69.75
2022-11-18T00:29:44.696Z,69.94
2022-11-18T00:32:17.445Z,69.85
2022-11-18T00:34:50.171Z,69.83
2022-11-18T00:37:22.399Z,69.89
2022-11-18T00:39:55.258Z,69.58
2022-11-18T00:42:45.021Z,69.78
2022-11-18T00:45:18.049Z,69.80
2022-11-18T00:47:51.236Z,69.87
2022-11-18T00:50:24.618Z,69.65
2022-11-18T00:52:56.823Z,69.94
2022-11-18T00:55:30.728Z,69.86
2022-11-18T00:58:03.130Z,69.68
2022-11-18T01:00:35.814Z,69.88
2022-11-18T01:03:08.200Z,69.66
2022-11-18T01:05:40.935Z,69.84
2022-11-18T01:08:14.737Z,69.76
2022-11-18T01:10:48.741Z,69.53
2022-11-18T01:13:24.273Z,69.44
2022-11-18T01:15:59.091Z,69.59
2022-11-18T01:18:33.661Z,69.63
2022-11-18T01:21:07.569Z,69.46
2022-11-18T01:23:40.325Z,69.74
2022-11-18T01:26:15.842Z,69.65
2022-11-18T01:28:49.358Z,69.58
2022-11-18T01:31:22.545Z,69.19
2022-11-18T01:33:55.044Z,69.44
2022-11-18T01:36:28.711Z,69.43
2022-11-18T01:39:01.881Z,69.80
2022-11-18T01:41:35.049Z,69.61
2022-11-18T01:44:22.259Z,69.83
2022-11-18T01:46:54.521Z,69.49
2022-11-18T01:49:27.124Z,69.77
2022-11-18T01:52:01.345Z,69.58
2022-11-18T01:54:40.875Z,69.55
2022-11-18T01:57:19.017Z,69.51
2022-11-18T01:59:54.955Z,69.58
2022-11-18T02:02:26.189Z,69.47
2022-11-18T02:05:00.685Z,69.43
2022-11-18T02:07:36.302Z,69.45
2022-11-18T02:10:18.291Z,69.47
2022-11-18T02:12:52.406Z,69.25
2022-11-18T02:15:34.708Z,69.06
2022-11-18T02:18:15.823Z,69.55
2022-11-18T02:20:51.479Z,69.51
2022-11-18T02:23:59.529Z,69.47
2022-11-18T02:27:08.225Z,69.45
2022-11-18T02:29:46.678Z,69.43
2022-11-18T02:32:25.949Z,69.38
2022-11-18T02:35:04.400Z,69.40
2022-11-18T02:37:43.862Z,69.49
2022-11-18T02:40:21.709Z,69.39
2022-11-18T02:43:01.088Z,69.54
2022-11-18T02:45:35.293Z,69.35
2022-11-18T02:48:12.478Z,69.76
2022-11-18T02:50:46.923Z,69.49
2022-11-18T02:53:22.653Z,69.60
2022-11-18T02:55:56.727Z,69.67
2022-11-18T02:58:29.385Z,69.90
2022-11-18T03:01:03.135Z,69.72
2022-11-18T03:03:37.372Z,69.76
2022-11-18T03:06:21.266Z,69.84
2022-11-18T03:09:00.663Z,70.14
2022-11-18T03:11:38.985Z,69.94
2022-11-18T03:14:26.202Z,70.01
2022-11-18T03:17:02.697Z,70.12
2022-11-18T03:19:59.819Z,70.31
2022-11-18T03:22:39.288Z,70.17
2022-11-18T03:25:17.743Z,70.32
2022-11-18T03:27:55.933Z,70.37
2022-11-18T03:30:31.979Z,70.14
2022-11-18T03:33:10.952Z,70.21
2022-11-18T03:35:47.932Z,70.29
2022-11-18T03:38:25.022Z,70.38
2022-11-18T03:41:01.201Z,70.46
2022-11-18T03:43:39.237Z,70.39
2022-11-18T03:46:16.776Z,70.37
2022-11-18T03:48:53.217Z,70.67
2022-11-18T03:51:32.232Z,70.52
2022-11-18T03:54:10.332Z,70.52
2022-11-18T03:56:47.952Z,70.54
2022-11-18T03:59:25.237Z,70.58
2022-11-18T04:02:03.152Z,70.58
2022-11-18T04:04:36.794Z,70.39
2022-11-18T04:07:18.018Z,70.37
2022-11-18T04:09:56.696Z,70.45
2022-11-18T04:12:32.923Z,70.29
2022-11-18T04:15:06.160Z,70.16
2022-11-18T04:17:41.997Z,70.19
2022-11-18T04:20:20.082Z,70.34
2022-11-18T04:22:52.467Z,70.33
2022-11-18T04:25:25.748Z,70.14
2022-11-18T04:27:58.009Z,70.27
2022-11-18T04:30:31.628Z,70.23
2022-11-18T04:33:05.397Z,70.23
2022-11-18T04:35:37.700Z,69.89
2022-11-18T04:38:10.840Z,70.12
2022-11-18T04:40:44.096Z,69.80
2022-11-18T04:43:17.629Z,69.76
2022-11-18T04:45:49.914Z,69.72
2022-11-18T04:48:22.271Z,69.86
2022-11-18T04:50:54.466Z,69.92
2022-11-18T04:53:26.909Z,69.97
2022-11-18T04:56:05.532Z,69.97
2022-11-18T04:58:38.276Z,69.68
2022-11-18T05:01:11.556Z,69.77
2022-11-18T05:03:50.315Z,69.79
2022-11-18T05:06:23.420Z,69.82
2022-11-18T05:08:55.920Z,69.73
2022-11-18T05:11:46.272Z,69.73
2022-11-18T05:14:19.507Z,69.67
2022-11-18T05:16:52.407Z,69.65
2022-11-18T05:19:24.820Z,69.68
2022-11-18T05:21:58.127Z,69.63
2022-11-18T05:24:31.186Z,69.61
2022-11-18T05:27:04.443Z,69.56
2022-11-18T05:29:36.835Z,69.82
2022-11-18T05:32:10.475Z,69.68
2022-11-18T05:34:44.360Z,69.74
2022-11-18T05:37:16.732Z,69.72
2022-11-18T05:39:49.516Z,69.66
2022-11-18T05:42:39.408Z,69.49
2022-11-18T05:45:12.329Z,69.51
2022-11-18T05:47:58.433Z,69.65
2022-11-18T05:50:31.461Z,69.61
2022-11-18T05:53:05.397Z,69.49
2022-11-18T05:55:42.027Z,69.56
2022-11-18T05:58:15.567Z,69.28
2022-11-18T06:00:51.189Z,69.56
2022-11-18T06:03:30.747Z,69.41
2022-11-18T06:06:06.853Z,69.37
2022-11-18T06:08:44.656Z,69.28
2022-11-18T06:11:20.899Z,69.18
2022-11-18T06:13:55.421Z,69.17
2022-11-18T06:16:33.389Z,69.10
2022-11-18T06:19:09.490Z,68.98
2022-11-18T06:21:42.655Z,69.24
2022-11-18T06:24:16.717Z,69.11
2022-11-18T06:26:51.201Z,68.93
2022-11-18T06:29:27.941Z,68.72
2022-11-18T06:32:00.573Z,68.88
2022-11-18T06:34:38.205Z,68.82
2022-11-18T06:37:18.598Z,68.84
2022-11-18T06:39:51.023Z,68.78
2022-11-18T06:42:40.939Z,68.81
2022-11-18T06:45:15.123Z,68.66
2022-11-18T06:47:47.520Z,68.63
2022-11-18T06:50:20.584Z,68.60
2022-11-18T06:52:53.248Z,68.61
2022-11-18T06:55:25.572Z,68.62
2022-11-18T06:58:00.535Z,68.46
2022-11-18T07:00:33.373Z,68.71
2022-11-18T07:03:07.384Z,68.43
2022-11-18T07:05:40.672Z,68.53
2022-11-18T07:08:13.720Z,68.44
2022-11-18T07:10:55.683Z,68.31
2022-11-18T07:13:28.292Z,68.27
2022-11-18T07:16:06.667Z,68.23
2022-11-18T07:18:41.751Z,68.23
2022-11-18T07:21:16.929Z,68.11
2022-11-18T07:23:50.484Z,68.08
2022-11-18T07:26:23.308Z,67.97
2022-11-18T07:28:56.949Z,68.04
2022-11-18T07:31:29.630Z,68.13
2022-11-18T07:34:02.335Z,67.99
2022-11-18T07:36:36.185Z,67.93
2022-11-18T07:39:10.749Z,67.84
2022-11-18T07:41:43.591Z,67.66
2022-11-18T07:44:17.671Z,67.60
2022-11-18T07:46:50.074Z,67.32
2022-11-18T07:49:22.827Z,66.97
2022-11-18T07:51:55.134Z,67.07
2022-11-18T07:54:27.842Z,66.94
2022-11-18T07:57:00.263Z,66.97
2022-11-18T07:59:33.899Z,66.89
2022-11-18T08:02:07.152Z,67.01
2022-11-18T08:04:41.776Z,66.73
2022-11-18T08:07:14.356Z,66.61
2022-11-18T08:09:46.812Z,66.39
2022-11-18T08:12:19.123Z,66.23
2022-11-18T08:14:51.783Z,66.19
2022-11-18T08:17:24.115Z,65.86
2022-11-18T08:19:56.925Z,65.63
2022-11-18T08:22:29.644Z,65.70
2022-11-18T08:25:02.271Z,65.47
2022-11-18T08:27:35.457Z,65.35
2022-11-18T08:30:09.247Z,65.13
2022-11-18T08:32:41.965Z,64.94
2022-11-18T08:35:14.868Z,64.73
2022-11-18T08:37:47.357Z,64.46
2022-11-18T08:40:20.663Z,64.38
2022-11-18T08:42:53.406Z,64.01
2022-11-18T08:45:25.771Z,63.90
2022-11-18T08:47:58.106Z,63.67
2022-11-18T08:50:30.597Z,63.36
2022-11-18T08:53:02.792Z,63.29
2022-11-18T08:55:35.017Z,63.06
2022-11-18T08:58:07.437Z,62.82
2022-11-18T09:00:40.189Z,62.72
2022-11-18T09:03:12.490Z,62.55
2022-11-18T09:05:44.853Z,62.35
2022-11-18T09:08:17.665Z,62.08
2022-11-18T09:10:50.164Z,61.99
2022-11-18T09:13:49.762Z,61.74
2022-11-18T09:16:14.670Z,61.67
2022-11-18T09:18:45.700Z,61.61
2022-11-18T09:21:18.394Z,61.30
2022-11-18T09:23:50.686Z,61.07
2022-11-18T09:26:24.469Z,60.76
2022-11-18T09:28:57.686Z,60.65
2022-11-18T09:31:30.819Z,60.44
2022-11-18T09:34:03.650Z,59.88
2022-11-18T09:36:36.281Z,59.59
2022-11-18T09:39:08.699Z,59.70
2022-11-18T09:41:48.583Z,59.70
2022-11-18T09:44:42.362Z,59.63
2022-11-18T09:47:26.313Z,59.67
2022-11-18T09:50:14.933Z,59.34
2022-11-18T09:53:05.661Z,59.11
2022-11-18T09:55:41.178Z,59.00
2022-11-18T09:58:24.580Z,58.86
2022-11-18T10:00:56.825Z,58.94
2022-11-18T10:03:34.246Z,59.00
2022-11-18T10:06:23.603Z,58.93
2022-11-18T10:09:06.979Z,58.47
2022-11-18T10:11:52.003Z,58.12
2022-11-18T10:14:41.327Z,58.26
2022-11-18T10:17:26.372Z,57.99
2022-11-18T10:20:21.820Z,57.86
2022-11-18T10:22:59.314Z,57.60
2022-11-18T10:25:31.739Z,57.57
2022-11-18T10:28:15.138Z,57.58
2022-11-18T10:30:47.836Z,57.52
2022-11-18T10:33:31.094Z,57.39
2022-11-18T10:36:20.156Z,57.04
2022-11-18T10:39:06.193Z,56.98
2022-11-18T10:41:48.153Z,56.82
2022-11-18T10:44:33.557Z,56.74
2022-11-18T10:47:33.095Z,56.54
2022-11-18T10:50:36.047Z,56.07
2022-11-18T10:53:26.024Z,56.08
2022-11-18T10:56:03.487Z,55.84
2022-11-18T10:58:42.127Z,55.83
2022-11-18T11:01:24.605Z,55.79
2022-11-18T11:04:03.759Z,55.77
2022-11-18T11:06:38.900Z,55.63
2022-11-18T11:09:25.268Z,55.49
2022-11-18T11:12:05.326Z,55.28
2022-11-18T11:14:51.434Z,55.11
2022-11-18T11:17:31.707Z,55.04
2022-11-18T11:20:16.081Z,55.07
2022-11-18T11:22:48.970Z,54.96
2022-11-18T11:25:29.404Z,54.99
2022-11-18T11:28:17.181Z,54.91
2022-11-18T11:31:01.799Z,54.70
2022-11-18T11:33:44.121Z,54.74
2022-11-18T11:36:40.100Z,54.74
2022-11-18T11:39:33.311Z,54.90
2022-11-18T11:42:15.995Z,54.82
2022-11-18T11:44:58.837Z,54.86
2022-11-18T11:47:51.741Z,54.74
2022-11-18T11:51:01.641Z,54.78
2022-11-18T11:54:04.367Z,54.73
2022-11-18T11:56:42.731Z,54.68
2022-11-18T11:59:26.819Z,54.72
2022-11-18T12:02:34.767Z,54.80
2022-11-18T12:05:18.639Z,54.84
2022-11-18T12:07:57.002Z,54.87
2022-11-18T12:10:44.391Z,54.89
2022-11-18T12:13:31.193Z,55.02
2022-11-18T12:16:13.696Z,54.94
2022-11-18T12:18:52.711Z,55.10
2022-11-18T12:22:00.578Z,55.13
2022-11-18T12:24:38.559Z,55.15
2022-11-18T12:27:16.323Z,55.10
2022-11-18T12:30:00.153Z,55.09
2022-11-18T12:32:42.989Z,55.26
2022-11-18T12:35:30.611Z,55.22
2022-11-18T12:38:04.954Z,55.18
2022-11-18T12:40:48.773Z,55.23
2022-11-18T12:44:05.910Z,55.24
2022-11-18T12:46:58.262Z,55.30
2022-11-18T12:50:13.574Z,55.39
2022-11-18T12:52:59.693Z,55.29
2022-11-18T12:55:34.753Z,55.22
2022-11-18T12:58:21.455Z,55.38
2022-11-18T13:01:06.425Z,55.30
2022-11-18T13:03:39.281Z,55.42
2022-11-18T13:06:23.499Z,55.36
2022-11-18T13:09:00.038Z,55.38
2022-11-18T13:11:46.436Z,55.34
2022-11-18T13:14:39.734Z,55.53
2022-11-18T13:17:50.316Z,55.36
2022-11-18T13:20:31.499Z,55.36
2022-11-18T13:23:23.829Z,55.43
2022-11-18T13:25:57.610Z,55.56
2022-11-18T13:28:38.602Z,55.36
2022-11-18T13:31:19.027Z,55.36
2022-11-18T13:33:53.592Z,55.47
2022-11-18T13:36:27.732Z,55.48
2022-11-18T13:39:02.029Z,55.46
2022-11-18T13:41:36.613Z,55.49
2022-11-18T13:44:23.047Z,55.44
2022-11-18T13:47:01.258Z,55.46
2022-11-18T13:49:50.260Z,55.49
2022-11-18T13:52:30.479Z,55.45
2022-11-18T13:55:08.672Z,55.59
2022-11-18T13:57:42.741Z,55.52
2022-11-18T14:00:25.567Z,55.43
2022-11-18T14:03:02.298Z,55.52
2022-11-18T14:05:35.421Z,55.63
2022-11-18T14:08:21.754Z,55.65
2022-11-18T14:10:52.827Z,55.68
2022-11-18T14:13:29.412Z,55.72
2022-11-18T14:16:04.450Z,55.72
2022-11-18T14:18:38.506Z,55.77
2022-11-18T14:21:15.090Z,55.84
2022-11-18T14:23:47.844Z,55.94
2022-11-18T14:26:30.566Z,55.80
2022-11-18T14:29:05.655Z,56.05
2022-11-18T14:31:38.362Z,56.04
2022-11-18T14:34:23.642Z,55.94
2022-11-18T14:36:57.099Z,56.08
2022-11-18T14:39:32.266Z,56.07
2022-11-18T14:42:05.842Z,56.11
2022-11-18T14:44:38.654Z,56.06
2022-11-18T14:47:19.950Z,56.26
2022-11-18T14:49:52.614Z,56.14
2022-11-18T14:52:24.833Z,56.47
2022-11-18T14:54:58.075Z,56.35
2022-11-18T14:57:32.186Z,56.42
2022-11-18T15:00:06.774Z,56.50
2022-11-18T15:02:39.284Z,56.48
2022-11-18T15:05:12.620Z,56.74
2022-11-18T15:07:45.533Z,56.67
2022-11-18T15:10:19.015Z,56.77
2022-11-18T15:12:51.998Z,56.78
2022-11-18T15:15:25.164Z,56.82
2022-11-18T15:17:58.202Z,56.93
2022-11-18T15:20:32.214Z,56.88
2022-11-18T15:23:05.939Z,56.90
2022-11-18T15:25:38.384Z,56.98
2022-11-18T15:28:12.873Z,56.93
2022-11-18T15:30:46.033Z,56.96
2022-11-18T15:33:18.463Z,57.13
2022-11-18T15:35:51.958Z,57.19
2022-11-18T15:38:25.095Z,57.22
2022-11-18T15:40:58.435Z,57.15
2022-11-18T15:43:31.127Z,57.35
2022-11-18T15:46:03.883Z,57.45
2022-11-18T15:48:36.783Z,57.44
2022-11-18T15:51:12.158Z,57.47
2022-11-18T15:53:43.291Z,57.65
2022-11-18T15:56:26.198Z,57.68
2022-11-18T15:59:00.808Z,57.65
2022-11-18T16:01:35.756Z,57.80
2022-11-18T16:04:11.668Z,57.85
2022-11-18T16:06:43.644Z,57.74
2022-11-18T16:09:18.024Z,57.93
2022-11-18T16:12:08.423Z,57.95
2022-11-18T16:14:41.086Z,57.94
2022-11-18T16:17:13.447Z,57.97
2022-11-18T16:19:46.627Z,58.00
2022-11-18T16:22:20.322Z,58.08
2022-11-18T16:24:53.840Z,58.16
2022-11-18T16:27:26.755Z,58.18
2022-11-18T16:29:59.748Z,58.15
2022-11-18T16:32:33.822Z,58.15
2022-11-18T16:35:07.149Z,58.23
2022-11-18T16:37:39.999Z,58.35
2022-11-18T16:40:14.350Z,58.16
2022-11-18T16:42:49.457Z,58.20
2022-11-18T16:45:23.137Z,58.32
2022-11-18T16:47:55.727Z,58.37
2022-11-18T16:50:29.330Z,58.29
2022-11-18T16:53:02.062Z,58.41
2022-11-18T16:55:34.778Z,58.46
2022-11-18T16:58:08.157Z,58.41
2022-11-18T17:01:09.627Z,58.45
2022-11-18T17:03:35.870Z,58.55
2022-11-18T17:06:10.146Z,58.54
2022-11-18T17:08:43.313Z,58.61
2022-11-18T17:11:16.835Z,58.67
2022-11-18T17:13:53.330Z,58.79
2022-11-18T17:16:30.261Z,58.71
2022-11-18T17:19:08.560Z,58.81
2022-11-18T17:21:45.399Z,58.82
2022-11-18T17:24:22.472Z,58.88
2022-11-18T17:26:56.687Z,59.02
2022-11-18T17:29:33.351Z,59.00
2022-11-18T17:32:07.795Z,59.07
2022-11-18T17:34:41.977Z,58.92
2022-11-18T17:37:18.011Z,59.16
2022-11-18T17:39:51.768Z,58.99
2022-11-18T17:42:25.898Z,59.20
2022-11-18T17:44:59.006Z,59.18
2022-11-18T17:47:31.992Z,59.32
2022-11-18T17:50:04.773Z,59.30
2022-11-18T17:52:37.677Z,59.35
2022-11-18T17:55:11.821Z,59.30
2022-11-18T17:57:45.084Z,59.38
2022-11-18T18:00:19.916Z,59.45
2022-11-18T18:02:54.473Z,59.58
2022-11-18T18:05:29.520Z,59.54
2022-11-18T18:08:04.591Z,59.60
2022-11-18T18:10:39.590Z,59.63
2022-11-18T18:13:31.221Z,59.74
2022-11-18T18:16:04.855Z,59.81
2022-11-18T18:18:37.704Z,59.69
2022-11-18T18:21:13.045Z,59.74
2022-11-18T18:23:47.933Z,59.71
2022-11-18T18:26:24.208Z,59.85
2022-11-18T18:29:01.322Z,59.77
2022-11-18T18:31:36.816Z,59.92
2022-11-18T18:34:09.827Z,60.01
2022-11-18T18:36:42.475Z,60.03
2022-11-18T18:39:14.896Z,60.15
2022-11-18T18:41:49.322Z,60.26
2022-11-18T18:44:22.279Z,60.28
2022-11-18T18:46:56.132Z,60.20
2022-11-18T18:49:29.990Z,60.37
2022-11-18T18:52:03.446Z,60.38
2022-11-18T18:54:37.178Z,60.31
2022-11-18T18:57:09.779Z,60.48
2022-11-18T18:59:43.043Z,60.42
2022-11-18T19:02:16.627Z,60.43
2022-11-18T19:04:50.492Z,60.57
2022-11-18T19:07:24.015Z,60.56
2022-11-18T19:09:56.747Z,60.54
2022-11-18T19:12:44.622Z,60.49
2022-11-18T19:15:18.052Z,60.59
2022-11-18T19:17:50.901Z,60.75
2022-11-18T19:20:36.952Z,60.67
2022-11-18T19:23:10.734Z,60.77
2022-11-18T19:25:44.143Z,60.76
2022-11-18T19:28:16.727Z,60.80
2022-11-18T19:30:50.018Z,60.87
2022-11-18T19:33:22.393Z,60.92
2022-11-18T19:35:55.431Z,61.14
2022-11-18T19:38:28.879Z,61.03
2022-11-18T19:41:05.458Z,61.16
2022-11-18T19:43:39.081Z,61.16
2022-11-18T19:46:13.671Z,61.23
2022-11-18T19:48:51.251Z,61.22
2022-11-18T19:51:24.766Z,61.30
2022-11-18T19:53:59.838Z,61.51
2022-11-18T19:56:32.339Z,61.57
2022-11-18T19:59:05.053Z,61.59
2022-11-18T20:01:37.452Z,61.66
2022-11-18T20:04:10.862Z,61.72
2022-11-18T20:06:44.241Z,61.70
2022-11-18T20:09:16.857Z,61.54
2022-11-18T20:11:49.892Z,61.55
2022-11-18T20:14:23.860Z,61.71
2022-11-18T20:16:56.307Z,61.89
2022-11-18T20:19:29.285Z,62.02
2022-11-18T20:22:02.599Z,62.02
2022-11-18T20:24:35.067Z,62.26
2022-11-18T20:27:07.397Z,62.21
2022-11-18T20:29:39.812Z,62.30
2022-11-18T20:32:12.140Z,62.48
2022-11-18T20:34:45.125Z,62.46
2022-11-18T20:37:19.005Z,62.57
2022-11-18T20:39:52.932Z,62.61
2022-11-18T20:42:44.233Z,62.70
2022-11-18T20:45:17.970Z,62.88
2022-11-18T20:47:50.439Z,62.95
2022-11-18T20:50:23.438Z,63.06
2022-11-18T20:52:56.114Z,63.03
2022-11-18T20:55:30.103Z,63.19
2022-11-18T20:58:05.535Z,63.23
2022-11-18T21:00:38.329Z,63.41
2022-11-18T21:03:12.567Z,63.28
2022-11-18T21:05:45.769Z,63.40
2022-11-18T21:08:18.537Z,63.47
2022-11-18T21:10:50.922Z,63.55
2022-11-18T21:13:41.164Z,63.64
2022-11-18T21:16:13.924Z,63.71
2022-11-18T21:18:46.832Z,63.84
2022-11-18T21:21:37.651Z,63.81
2022-11-18T21:24:11.677Z,63.84
2022-11-18T21:26:44.778Z,63.88
2022-11-18T21:29:19.718Z,63.83
2022-11-18T21:31:53.451Z,63.90
2022-11-18T21:34:26.742Z,63.87
2022-11-18T21:36:59.957Z,64.11
2022-11-18T21:39:34.600Z,63.92
2022-11-18T21:42:08.332Z,64.01
2022-11-18T21:44:41.482Z,64.22
2022-11-18T21:47:14.183Z,64.17
2022-11-18T21:49:46.515Z,64.16
2022-11-18T21:52:19.251Z,64.20
2022-11-18T21:54:51.701Z,64.38
2022-11-18T21:57:24.948Z,64.46
2022-11-18T21:59:57.705Z,64.54
2022-11-18T22:02:30.551Z,64.53
2022-11-18T22:05:06.917Z,64.50
2022-11-18T22:07:40.662Z,64.43
2022-11-18T22:10:14.603Z,64.49
2022-11-18T22:12:49.197Z,64.60
2022-11-18T22:15:22.192Z,64.65
2022-11-18T22:17:54.643Z,64.82
2022-11-18T22:20:27.172Z,64.88
2022-11-18T22:22:59.451Z,64.87
2022-11-18T22:25:33.015Z,64.89
2022-11-18T22:28:06.255Z,64.84
2022-11-18T22:30:38.849Z,64.86
2022-11-18T22:33:11.167Z,65.00
2022-11-18T22:35:43.654Z,64.98
2022-11-18T22:38:16.546Z,65.07
2022-11-18T22:40:49.369Z,65.02
2022-11-18T22:43:21.672Z,65.15
2022-11-18T22:46:02.727Z,65.18
2022-11-18T22:48:36.202Z,65.15
2022-11-18T22:51:10.516Z,65.13
2022-11-18T22:53:44.019Z,65.12
2022-11-18T22:56:18.124Z,65.27
2022-11-18T22:58:51.248Z,65.27
2022-11-18T23:01:25.341Z,65.36
2022-11-18T23:03:57.875Z,65.26
2022-11-18T23:06:31.506Z,65.48
2022-11-18T23:09:03.966Z,65.43
2022-11-18T23:11:54.226Z,65.47
2022-11-18T23:14:28.032Z,65.63
2022-11-18T23:17:01.278Z,65.60
2022-11-18T23:19:33.823Z,65.66
2022-11-18T23:22:06.403Z,65.81
2022-11-18T23:24:40.089Z,65.89
2022-11-18T23:27:13.591Z,66.08
2022-11-18T23:29:47.272Z,66.07
2022-11-18T23:32:21.650Z,66.16
2022-11-18T23:34:54.378Z,66.31
2022-11-18T23:37:27.252Z,66.42
2022-11-18T23:39:59.668Z,66.44
2022-11-18T23:42:33.667Z,66.57
2022-11-18T23:45:09.583Z,66.61
2022-11-18T23:47:40.196Z,66.81
2022-11-18T23:50:13.251Z,66.89
2022-11-18T23:52:46.847Z,66.93
2022-11-18T23:55:19.935Z,67.14
2022-11-18T23:57:54.414Z,67.30
